Time;durP1;ratioP1;P1;durP2;ratioP2;P2;SDS_P1;SDS_P2;PMS_P1;PMS_P2;Temp;Humidity;BMP_temperature;BMP_pressure;BME280_temperature;BME280_humidity;BME280_pressure;Samples;Min_cycle;Max_cycle;Signal;HPM_P1;HPM_P2
2023/06/20 00:00:06;;;;;;;;;8.00;8.00;;;;;21.50;51.08;99470.44;5014276;28;8849;-59
2023/06/20 00:02:34;;;;;;;;;8.20;8.20;;;;;21.48;51.37;99468.97;5014797;28;8840;-59
2023/06/20 00:05:03;;;;;;;;;8.00;8.00;;;;;21.47;51.30;99467.28;5015104;28;8841;-59
2023/06/20 00:07:31;;;;;;;;;8.60;8.20;;;;;21.45;51.27;99469.38;5014984;28;8852;-59
2023/06/20 00:09:59;;;;;;;;;8.00;7.00;;;;;21.43;51.70;99463.31;5015117;28;8845;-59
2023/06/20 00:12:27;;;;;;;;;12.00;11.60;;;;;21.42;51.53;99458.94;5014706;28;8813;-59
2023/06/20 00:14:55;;;;;;;;;7.80;7.60;;;;;21.41;51.46;99462.69;5014708;28;8865;-59
2023/06/20 00:17:25;;;;;;;;;11.00;9.00;;;;;21.38;51.62;99463.09;5014413;28;8837;-58
2023/06/20 00:19:53;;;;;;;;;7.40;7.40;;;;;21.34;51.61;99456.41;5014525;28;8849;-59
2023/06/20 00:22:22;;;;;;;;;9.80;8.00;;;;;21.31;51.69;99465.78;5014657;28;8859;-59
2023/06/20 00:24:49;;;;;;;;;8.40;8.00;;;;;21.29;51.50;99459.72;5015037;28;8829;-58
2023/06/20 00:27:17;;;;;;;;;9.20;8.00;;;;;21.26;52.20;99462.00;5014608;28;8845;-59
2023/06/20 00:29:45;;;;;;;;;5.00;5.00;;;;;21.23;52.35;99456.97;5014799;28;8845;-59
2023/06/20 00:32:13;;;;;;;;;7.80;7.00;;;;;21.20;52.13;99454.69;5014418;28;8825;-58
2023/06/20 00:34:41;;;;;;;;;8.80;8.00;;;;;21.18;52.08;99462.19;5014504;28;9558;-59
2023/06/20 00:37:08;;;;;;;;;10.40;10.00;;;;;21.15;52.15;99460.72;5014259;28;8841;-59
2023/06/20 00:39:36;;;;;;;;;13.40;11.00;;;;;21.14;52.49;99455.47;5014242;28;8833;-59
2023/06/20 00:42:04;;;;;;;;;11.40;11.20;;;;;21.11;52.38;99455.91;5014268;28;8837;-59
2023/06/20 00:44:31;;;;;;;;;7.40;7.00;;;;;21.10;52.82;99459.66;5014773;28;8836;-59
2023/06/20 00:46:59;;;;;;;;;10.20;9.60;;;;;21.11;52.41;99461.31;5014481;28;8837;-59
2023/06/20 00:49:28;;;;;;;;;5.00;5.00;;;;;21.16;52.28;99454.25;5014219;28;8851;-60
2023/06/20 00:51:56;;;;;;;;;11.20;10.60;;;;;21.22;52.21;99452.59;5014253;28;8845;-59
2023/06/20 00:54:23;;;;;;;;;11.80;8.80;;;;;21.27;52.83;99450.94;5014172;28;8861;-59
2023/06/20 00:56:51;;;;;;;;;7.60;7.40;;;;;21.31;51.99;99454.09;5013879;28;8840;-59
2023/06/20 00:59:19;;;;;;;;;11.40;11.40;;;;;21.33;52.52;99449.34;5013202;28;8977;-59
2023/06/20 01:01:47;;;;;;;;;12.00;9.20;;;;;21.35;51.98;99453.47;5014242;28;8833;-58
2023/06/20 01:04:15;;;;;;;;;11.00;9.80;;;;;21.39;52.04;99456.63;5014192;28;8856;-59
2023/06/20 01:06:43;;;;;;;;;10.80;8.80;;;;;21.41;52.33;99449.16;5014346;28;8833;-59
2023/06/20 01:09:10;;;;;;;;;9.20;8.80;;;;;21.47;52.26;99448.31;5014195;28;8848;-59
2023/06/20 01:11:39;;;;;;;;;8.40;8.00;;;;;21.53;51.95;99439.38;5014540;28;8848;-59
2023/06/20 01:14:06;;;;;;;;;12.40;11.60;;;;;21.58;51.61;99436.91;5013891;28;8848;-59
2023/06/20 01:16:34;;;;;;;;;7.20;7.20;;;;;21.60;51.63;99441.09;5013634;28;8845;-59
2023/06/20 01:19:01;;;;;;;;;8.00;8.00;;;;;21.62;52.08;99446.28;5013911;28;8865;-59
2023/06/20 01:21:30;;;;;;;;;11.40;11.00;;;;;21.63;52.33;99439.84;5013521;28;8840;-59
2023/06/20 01:23:57;;;;;;;;;11.40;11.40;;;;;21.61;52.08;99444.63;5013444;28;8832;-56
2023/06/20 01:26:26;;;;;;;;;11.60;11.20;;;;;21.59;51.79;99444.00;5013555;28;8858;-59
2023/06/20 01:28:53;;;;;;;;;11.40;8.80;;;;;21.58;52.11;99443.16;5013828;28;8852;-57
2023/06/20 01:31:21;;;;;;;;;9.00;9.00;;;;;21.58;52.17;99443.16;5013517;28;8860;-58
2023/06/20 01:33:49;;;;;;;;;11.00;9.00;;;;;21.58;51.77;99436.91;5013622;28;8954;-59
2023/06/20 01:36:17;;;;;;;;;8.00;8.00;;;;;21.60;51.98;99434.81;5013926;28;8817;-59
2023/06/20 01:38:45;;;;;;;;;12.40;11.80;;;;;21.60;52.10;99429.38;5013399;28;8848;-58
2023/06/20 01:41:12;;;;;;;;;11.20;11.20;;;;;21.59;51.90;99434.00;5013976;28;8883;-59
2023/06/20 01:43:40;;;;;;;;;14.40;12.00;;;;;21.57;52.37;99436.06;5013840;28;8829;-57
2023/06/20 01:46:07;;;;;;;;;11.00;9.00;;;;;21.57;52.25;99429.81;5013493;28;8829;-59
2023/06/20 01:48:35;;;;;;;;;10.20;9.60;;;;;21.57;52.14;99435.22;5013938;28;8855;-58
2023/06/20 01:51:03;;;;;;;;;12.20;11.20;;;;;21.56;52.24;99428.97;5013179;28;8841;-59
2023/06/20 01:53:31;;;;;;;;;9.80;9.80;;;;;21.57;52.43;99435.22;5013487;28;8833;-59
2023/06/20 01:56:01;;;;;;;;;8.00;8.00;;;;;21.56;52.38;99439.00;5013117;28;8976;-60
2023/06/20 01:58:29;;;;;;;;;13.20;11.20;;;;;21.56;52.16;99430.84;5013289;28;8843;-59
2023/06/20 02:00:57;;;;;;;;;13.20;11.80;;;;;21.57;52.03;99437.94;5013335;28;8837;-59
2023/06/20 02:03:25;;;;;;;;;10.20;9.60;;;;;21.56;52.13;99441.69;5013338;28;8959;-59
2023/06/20 02:05:53;;;;;;;;;12.20;12.20;;;;;21.56;52.18;99430.84;5013223;28;8849;-59
2023/06/20 02:08:20;;;;;;;;;13.00;13.00;;;;;21.57;52.50;99430.63;5013393;28;8837;-59
2023/06/20 02:10:48;;;;;;;;;14.60;14.20;;;;;21.57;52.14;99432.53;5012264;28;8837;-59
2023/06/20 02:13:16;;;;;;;;;12.40;12.20;;;;;21.55;52.06;99430.00;5012542;28;8837;-59
2023/06/20 02:15:44;;;;;;;;;12.20;11.40;;;;;21.55;52.78;99431.91;5012587;28;8848;-59
2023/06/20 02:18:12;;;;;;;;;12.00;11.80;;;;;21.52;52.76;99432.28;5012749;28;8841;-59
2023/06/20 02:20:40;;;;;;;;;10.80;9.40;;;;;21.50;52.37;99435.19;5012950;28;8933;-59
2023/06/20 02:23:09;;;;;;;;;14.60;12.00;;;;;21.47;52.60;99432.06;5013170;28;8845;-59
2023/06/20 02:25:37;;;;;;;;;14.60;13.20;;;;;21.44;52.63;99432.47;5013133;28;8833;-59
2023/06/20 02:28:05;;;;;;;;;9.20;8.40;;;;;21.42;52.73;99445.41;5012901;28;8867;-59
2023/06/20 02:30:33;;;;;;;;;17.20;15.20;;;;;21.38;53.06;99439.56;5013151;28;8863;-59
2023/06/20 02:33:00;;;;;;;;;12.80;12.00;;;;;21.36;53.41;99440.78;5012963;28;8849;-59
2023/06/20 02:35:28;;;;;;;;;15.60;14.60;;;;;21.36;53.00;99438.06;5012853;28;8848;-59
2023/06/20 02:37:56;;;;;;;;;11.80;9.60;;;;;21.35;53.10;99447.25;5013306;28;8849;-59
2023/06/20 02:40:25;;;;;;;;;17.80;15.40;;;;;21.35;53.21;99445.34;5013003;28;8848;-59
2023/06/20 02:42:53;;;;;;;;;15.40;14.60;;;;;21.37;52.83;99445.16;5012539;28;9582;-59
2023/06/20 02:45:21;;;;;;;;;15.20;13.20;;;;;21.38;52.71;99441.41;5012867;28;8857;-59
2023/06/20 02:47:49;;;;;;;;;13.20;13.20;;;;;21.39;53.34;99438.50;5013054;28;9530;-58
2023/06/20 02:50:17;;;;;;;;;15.60;14.00;;;;;21.40;52.86;99434.75;5012489;28;8837;-59
2023/06/20 02:52:45;;;;;;;;;11.00;9.80;;;;;21.40;52.75;99434.75;5012361;28;8841;-59
2023/06/20 02:55:12;;;;;;;;;14.60;13.40;;;;;21.40;52.99;99433.94;5012410;28;8879;-59
2023/06/20 02:57:40;;;;;;;;;12.00;11.00;;;;;21.42;52.84;99431.84;5012801;28;8844;-57
2023/06/20 03:00:09;;;;;;;;;13.40;13.20;;;;;21.41;52.84;99433.72;5012999;28;8829;-57
2023/06/20 03:02:38;;;;;;;;;14.20;12.60;;;;;21.41;52.84;99432.91;5012665;28;8843;-59
2023/06/20 03:05:05;;;;;;;;;14.40;10.80;;;;;21.40;53.42;99433.94;5012918;28;8880;-58
2023/06/20 03:07:34;;;;;;;;;12.80;12.00;;;;;21.39;53.48;99434.94;5012980;28;9533;-59
2023/06/20 03:10:03;;;;;;;;;11.20;11.20;;;;;21.39;53.57;99437.66;5012651;28;8852;-58
2023/06/20 03:12:31;;;;;;;;;12.80;11.80;;;;;21.37;53.43;99439.75;5012909;28;8833;-57
2023/06/20 03:14:59;;;;;;;;;13.40;12.20;;;;;21.37;53.49;99445.16;5012556;28;8879;-59
2023/06/20 03:17:26;;;;;;;;;10.40;10.40;;;;;21.33;53.48;99449.34;5012387;28;8894;-58
2023/06/20 03:19:54;;;;;;;;;13.80;12.00;;;;;21.30;53.66;99460.56;5012498;28;8971;-57
2023/06/20 03:22:22;;;;;;;;;14.40;12.60;;;;;21.23;53.77;99468.66;5014517;28;8851;-57
2023/06/20 03:24:50;;;;;;;;;11.80;11.60;;;;;21.14;54.21;99469.03;5016076;28;8833;-57
2023/06/20 03:27:18;;;;;;;;;12.40;11.40;;;;;21.05;54.16;99475.66;5015407;28;8914;-57
2023/06/20 03:29:45;;;;;;;;;13.60;12.40;;;;;20.98;54.45;99472.91;5015111;28;8845;-57
2023/06/20 03:32:13;;;;;;;;;12.00;10.80;;;;;20.93;54.51;99480.78;5015549;28;8829;-56
2023/06/20 03:34:40;;;;;;;;;7.00;6.60;;;;;20.89;54.86;99478.69;5015288;28;8868;-57
2023/06/20 03:37:08;;;;;;;;;11.00;9.40;;;;;20.86;54.75;99473.59;5014745;28;8837;-57
2023/06/20 03:39:36;;;;;;;;;8.40;8.40;;;;;20.84;55.17;99481.09;5014783;28;8825;-57
2023/06/20 03:42:04;;;;;;;;;14.00;10.00;;;;;20.81;54.84;99476.09;5014693;28;8836;-56
2023/06/20 03:44:31;;;;;;;;;6.60;6.60;;;;;20.78;55.04;99471.06;5015122;28;8833;-58
2023/06/20 03:46:59;;;;;;;;;10.00;10.00;;;;;20.75;55.61;99480.41;5015014;28;8832;-56
2023/06/20 03:49:27;;;;;;;;;10.40;10.40;;;;;20.70;55.48;99468.50;5014873;28;8857;-56
2023/06/20 03:51:55;;;;;;;;;13.20;13.20;;;;;20.67;55.81;99467.03;5014671;28;8888;-60
2023/06/20 03:54:23;;;;;;;;;11.00;10.80;;;;;20.65;55.76;99464.72;5015215;28;8875;-57
2023/06/20 03:56:51;;;;;;;;;10.20;10.20;;;;;20.61;55.66;99467.00;5015311;28;8888;-56
2023/06/20 03:59:19;;;;;;;;;11.40;10.60;;;;;20.58;55.77;99472.81;5014955;28;8925;-58
2023/06/20 04:01:47;;;;;;;;;11.00;11.00;;;;;20.57;55.61;99467.59;5015266;28;8856;-57
2023/06/20 04:04:16;;;;;;;;;5.00;5.00;;;;;20.56;56.07;99466.75;5014654;28;8875;-58
2023/06/20 04:06:49;;;;;;;;;11.20;10.40;;;;;20.54;56.02;99466.09;5015215;28;8848;-59
2023/06/20 04:09:17;;;;;;;;;12.00;11.20;;;;;20.54;56.00;99471.53;5014970;28;8845;-56
2023/06/20 04:11:45;;;;;;;;;8.60;8.60;;;;;20.54;55.96;99466.09;5014785;28;8844;-56
2023/06/20 04:14:12;;;;;;;;;14.00;12.40;;;;;20.54;56.07;99466.09;5014499;28;8825;-57
2023/06/20 04:16:40;;;;;;;;;11.20;10.80;;;;;20.53;55.95;99480.69;5014759;28;9511;-58
2023/06/20 04:19:08;;;;;;;;;8.80;8.80;;;;;20.53;56.54;99467.16;5014543;28;8848;-59
2023/06/20 04:21:36;;;;;;;;;7.60;5.80;;;;;20.54;55.92;99463.41;5014671;28;8864;-58
2023/06/20 04:24:03;;;;;;;;;7.60;7.60;;;;;20.54;56.49;99458.00;5014190;28;8971;-59
2023/06/20 04:26:31;;;;;;;;;12.40;11.00;;;;;20.57;55.84;99465.72;5014275;28;8848;-58
2023/06/20 04:28:59;;;;;;;;;8.00;8.00;;;;;20.61;56.15;99461.59;5013978;28;8841;-56
2023/06/20 04:31:29;;;;;;;;;10.00;10.00;;;;;20.63;56.40;99459.50;5013168;28;8849;-57
2023/06/20 04:33:59;;;;;;;;;6.60;6.60;;;;;20.67;56.57;99447.28;5012875;28;9528;-59
2023/06/20 04:36:28;;;;;;;;;11.60;11.00;;;;;20.71;56.31;99445.00;5012006;28;8868;-58
2023/06/20 04:38:56;;;;;;;;;13.60;11.60;;;;;20.74;56.23;99438.13;5012070;28;8879;-59
2023/06/20 04:41:24;;;;;;;;;11.20;11.00;;;;;20.81;56.06;99449.03;5012407;28;8859;-57
2023/06/20 04:43:52;;;;;;;;;5.40;5.40;;;;;20.86;55.97;99457.38;5012061;28;9535;-57
2023/06/20 04:46:20;;;;;;;;;11.20;10.20;;;;;20.92;56.43;99461.22;5012705;28;8852;-57
2023/06/20 04:48:47;;;;;;;;;10.40;9.60;;;;;20.95;56.19;99461.66;5013342;28;8871;-59
2023/06/20 04:51:16;;;;;;;;;7.20;7.00;;;;;20.99;56.06;99457.47;5013653;28;8861;-58
2023/06/20 04:53:44;;;;;;;;;13.20;11.60;;;;;21.05;55.86;99456.69;5014108;28;8875;-56
2023/06/20 04:56:15;;;;;;;;;10.40;10.40;;;;;21.13;56.01;99457.38;5014160;28;9519;-57
2023/06/20 04:58:45;;;;;;;;;10.20;9.80;;;;;21.21;55.67;99457.19;5013748;28;8845;-57
2023/06/20 05:01:14;;;;;;;;;11.00;11.00;;;;;21.31;55.39;99462.22;5013628;28;9542;-60
2023/06/20 05:03:42;;;;;;;;;11.80;9.40;;;;;21.40;55.22;99455.63;5013331;28;8840;-58
2023/06/20 05:06:17;;;;;;;;;13.20;11.20;;;;;21.49;55.48;99451.69;5013278;28;8837;-60
2023/06/20 05:08:45;;;;;;;;;12.00;11.20;;;;;21.57;55.09;99454.22;5013257;28;8860;-59
2023/06/20 05:11:13;;;;;;;;;9.80;9.20;;;;;21.65;54.67;99459.44;5013809;28;9483;-60
2023/06/20 05:13:40;;;;;;;;;10.20;9.00;;;;;21.74;55.23;99452.81;5013145;28;8849;-60
2023/06/20 05:16:08;;;;;;;;;11.40;9.40;;;;;21.80;54.70;99457.44;5013149;28;8849;-60
2023/06/20 05:18:36;;;;;;;;;13.60;11.40;;;;;21.84;55.06;99469.53;5012494;28;8829;-59
2023/06/20 05:21:04;;;;;;;;;17.80;14.00;;;;;21.83;55.00;99473.28;5013154;28;8856;-60
2023/06/20 05:23:31;;;;;;;;;8.60;8.60;;;;;21.80;55.51;99470.97;5013114;28;8922;-60
2023/06/20 05:25:59;;;;;;;;;11.40;9.80;;;;;21.82;55.44;99460.75;5012594;28;8845;-59
2023/06/20 05:28:27;;;;;;;;;11.00;8.00;;;;;21.85;55.57;99482.06;5012394;28;8856;-60
2023/06/20 05:30:55;;;;;;;;;11.00;9.80;;;;;21.86;55.41;99473.69;5013131;28;8844;-60
2023/06/20 05:33:22;;;;;;;;;11.20;11.00;;;;;21.86;55.13;99481.03;5012469;28;8849;-59
2023/06/20 05:35:50;;;;;;;;;8.80;7.00;;;;;21.87;55.47;99479.97;5011720;28;8848;-58
2023/06/20 05:38:18;;;;;;;;;11.00;9.00;;;;;21.85;55.77;99480.16;5012897;28;8858;-58
2023/06/20 05:40:45;;;;;;;;;6.80;6.20;;;;;21.86;55.63;99491.88;5012462;28;8892;-59
2023/06/20 05:43:14;;;;;;;;;9.80;8.60;;;;;21.86;55.38;99502.72;5012563;28;8853;-59
2023/06/20 05:45:42;;;;;;;;;9.00;9.00;;;;;21.85;55.34;99498.34;5012119;28;8852;-59
2023/06/20 05:48:11;;;;;;;;;12.00;11.00;;;;;21.87;55.79;99493.53;5012043;28;8849;-60
2023/06/20 05:50:39;;;;;;;;;8.60;8.40;;;;;21.89;55.34;99486.03;5011314;28;8971;-58
2023/06/20 05:53:07;;;;;;;;;11.80;11.00;;;;;21.91;55.27;99492.06;5012032;28;9005;-59
2023/06/20 05:55:37;;;;;;;;;8.20;6.40;;;;;21.91;55.83;99490.19;5012080;28;8845;-59
2023/06/20 05:58:04;;;;;;;;;8.20;7.20;;;;;21.91;55.28;99494.78;5011622;28;9011;-58
2023/06/20 06:00:33;;;;;;;;;12.20;11.40;;;;;21.91;56.06;99497.50;5010660;28;8995;-59
2023/06/20 06:03:00;;;;;;;;;11.00;9.40;;;;;21.91;55.89;99500.19;5011584;28;8860;-60
2023/06/20 06:05:29;;;;;;;;;10.20;9.00;;;;;21.88;55.49;99498.72;5011950;28;8973;-60
2023/06/20 06:07:57;;;;;;;;;8.00;7.60;;;;;21.88;55.78;99501.44;5010429;28;8852;-60
2023/06/20 06:10:25;;;;;;;;;8.60;8.00;;;;;21.87;56.06;99497.06;5009821;28;8856;-60
2023/06/20 06:12:53;;;;;;;;;12.00;11.80;;;;;21.88;56.09;99496.03;5009069;28;8857;-60
2023/06/20 06:15:21;;;;;;;;;9.80;9.80;;;;;21.92;56.13;99504.59;5009662;28;8844;-60
2023/06/20 06:17:49;;;;;;;;;7.20;6.20;;;;;21.95;56.09;99493.34;5059564;28;8837;-60
2023/06/20 06:20:19;;;;;;;;;12.60;12.60;;;;;21.98;56.13;99504.63;5093482;28;8941;-59
2023/06/20 06:22:47;;;;;;;;;9.60;9.60;;;;;22.02;56.11;99510.47;5093564;28;9581;-60
2023/06/20 06:25:15;;;;;;;;;10.00;9.00;;;;;22.04;56.05;99505.66;5093342;28;8841;-59
2023/06/20 06:27:42;;;;;;;;;12.40;11.00;;;;;22.04;56.05;99502.94;5094420;28;8825;-57
2023/06/20 06:30:10;;;;;;;;;15.80;14.60;;;;;22.05;56.15;99497.34;5094601;28;8848;-59
2023/06/20 06:32:38;;;;;;;;;15.40;13.20;;;;;22.06;56.24;99498.16;5093533;28;9562;-60
2023/06/20 06:35:06;;;;;;;;;12.60;11.40;;;;;22.08;56.47;99498.81;5093274;28;8987;-60
2023/06/20 06:37:34;;;;;;;;;12.00;11.60;;;;;22.12;56.13;99511.75;5093135;28;8936;-60
2023/06/20 06:40:04;;;;;;;;;13.60;12.40;;;;;22.14;56.13;99514.22;5092579;28;8837;-60
2023/06/20 06:42:32;;;;;;;;;12.40;11.80;;;;;22.17;56.07;99521.97;5093023;28;8867;-59
2023/06/20 06:45:02;;;;;;;;;12.80;11.60;;;;;22.21;56.10;99521.34;5092905;28;9531;-59
2023/06/20 06:47:29;;;;;;;;;12.00;11.40;;;;;22.25;56.17;99522.59;5093017;28;8967;-60
2023/06/20 06:49:57;;;;;;;;;10.40;9.00;;;;;22.29;56.20;99513.00;5092861;28;8865;-60
2023/06/20 06:52:25;;;;;;;;;11.20;11.00;;;;;22.37;56.09;99509.25;5092510;28;8934;-60
2023/06/20 06:54:53;;;;;;;;;8.00;8.00;;;;;22.43;55.92;99506.59;5092668;28;8876;-59
2023/06/20 06:57:21;;;;;;;;;8.80;8.80;;;;;22.49;55.41;99502.19;5097345;28;8853;-60
2023/06/20 06:59:49;;;;;;;;;11.40;9.20;;;;;22.53;55.43;99498.84;5097010;28;8837;-59
2023/06/20 07:02:17;;;;;;;;;12.40;11.20;;;;;22.59;55.89;99503.47;5095731;28;8863;-59
2023/06/20 07:04:45;;;;;;;;;13.00;12.00;;;;;22.66;56.03;99498.88;5095652;28;8860;-60
2023/06/20 07:07:13;;;;;;;;;8.80;8.40;;;;;22.75;55.50;99494.88;5096152;28;8914;-60
2023/06/20 07:09:41;;;;;;;;;16.40;13.00;;;;;22.82;55.16;99486.72;5095919;28;8852;-60
2023/06/20 07:12:10;;;;;;;;;15.40;14.60;;;;;22.86;55.09;99488.81;5096034;28;8849;-60
2023/06/20 07:14:38;;;;;;;;;14.20;12.60;;;;;22.88;55.06;99480.44;5096245;28;8849;-59
2023/06/20 07:17:06;;;;;;;;;17.60;16.00;;;;;22.91;55.09;99471.91;5096012;28;8849;-59
2023/06/20 07:19:34;;;;;;;;;12.00;11.20;;;;;22.98;55.38;99476.25;5096853;28;8853;-59
2023/06/20 07:22:04;;;;;;;;;13.80;11.00;;;;;23.07;54.83;99479.59;5096562;28;8926;-59
2023/06/20 07:24:32;;;;;;;;;13.00;12.60;;;;;23.14;54.88;99478.50;5095649;28;8847;-58
2023/06/20 07:27:00;;;;;;;;;10.00;9.80;;;;;23.24;54.63;99469.94;5095903;28;9503;-57
2023/06/20 07:29:28;;;;;;;;;10.00;9.60;;;;;23.32;54.65;99461.53;5096160;28;8975;-60
2023/06/20 07:31:56;;;;;;;;;8.40;8.40;;;;;23.40;54.84;99466.75;5096001;28;9511;-60
2023/06/20 07:34:25;;;;;;;;;7.80;7.20;;;;;23.48;54.66;99471.94;5097211;28;8857;-59
2023/06/20 07:36:53;;;;;;;;;7.40;6.00;;;;;23.56;54.84;99469.81;5096342;28;9514;-57
2023/06/20 07:39:20;;;;;;;;;10.20;8.20;;;;;23.61;54.32;99471.88;5096604;28;8844;-58
2023/06/20 07:41:48;;;;;;;;;12.80;11.60;;;;;23.66;54.55;99474.81;5096646;28;8859;-58
2023/06/20 07:44:16;;;;;;;;;7.80;7.60;;;;;23.71;54.58;99467.66;5097353;28;8847;-57
2023/06/20 07:46:46;;;;;;;;;8.00;8.00;;;;;23.73;54.29;99468.25;5095878;28;8857;-59
2023/06/20 07:49:14;;;;;;;;;8.60;8.20;;;;;23.75;54.37;99476.22;5095486;28;8833;-59
2023/06/20 07:51:43;;;;;;;;;12.40;10.00;;;;;23.74;54.33;99466.38;5096148;28;8933;-59
2023/06/20 07:54:10;;;;;;;;;12.00;10.00;;;;;23.73;54.56;99467.41;5095718;28;8848;-58
2023/06/20 07:56:38;;;;;;;;;9.80;9.80;;;;;23.68;55.02;99453.66;5095602;28;8953;-58
2023/06/20 07:59:07;;;;;;;;;5.00;5.00;;;;;23.67;54.72;99454.72;5095641;28;8852;-58
2023/06/20 08:01:35;;;;;;;;;9.60;8.80;;;;;23.67;55.02;99443.81;5095162;28;8968;-58
2023/06/20 08:04:03;;;;;;;;;10.20;9.40;;;;;23.67;54.96;99451.97;5096078;28;8939;-58
2023/06/20 08:06:31;;;;;;;;;8.20;8.00;;;;;23.69;55.02;99444.44;5095653;28;8864;-58
2023/06/20 08:08:59;;;;;;;;;10.20;10.00;;;;;23.72;55.00;99435.81;5095515;28;8855;-59
2023/06/20 08:11:29;;;;;;;;;12.20;10.20;;;;;23.77;55.14;99427.84;5095119;28;8942;-59
2023/06/20 08:13:57;;;;;;;;;11.00;10.00;;;;;23.84;55.06;99428.66;5095711;28;8833;-58
2023/06/20 08:16:25;;;;;;;;;10.40;10.20;;;;;23.84;54.86;99428.66;5095227;28;8925;-58
2023/06/20 08:18:53;;;;;;;;;8.60;6.80;;;;;23.83;54.95;99419.66;5095144;28;8918;-59
2023/06/20 08:21:21;;;;;;;;;9.20;8.20;;;;;23.96;54.48;99421.50;5095290;28;8833;-58
2023/06/20 08:23:50;;;;;;;;;12.20;10.60;;;;;24.15;53.99;99413.19;5094816;28;8844;-57
2023/06/20 08:26:18;;;;;;;;;9.80;9.60;;;;;24.38;53.76;99415.28;5095428;28;8860;-59
2023/06/20 08:28:46;;;;;;;;;5.20;5.20;;;;;24.59;53.59;99417.63;5095283;28;8872;-58
2023/06/20 08:31:15;;;;;;;;;11.40;11.20;;;;;24.80;52.92;99414.50;5095933;28;8959;-58
2023/06/20 08:33:43;;;;;;;;;13.00;11.00;;;;;24.98;52.66;99422.66;5095808;28;8963;-58
2023/06/20 08:36:12;;;;;;;;;10.00;9.60;;;;;25.12;52.40;99411.41;5094730;28;8869;-59
2023/06/20 08:38:40;;;;;;;;;10.40;9.80;;;;;25.29;52.27;99419.81;5095031;28;8857;-58
2023/06/20 08:41:08;;;;;;;;;12.20;10.00;;;;;25.45;51.91;99416.47;5094799;28;9768;-58
2023/06/20 08:43:36;;;;;;;;;12.00;11.00;;;;;25.63;52.48;99413.72;5095506;28;8836;-61
2023/06/20 08:46:04;;;;;;;;;14.00;11.00;;;;;25.76;51.98;99415.19;5093904;28;8855;-59
2023/06/20 08:48:33;;;;;;;;;11.20;10.00;;;;;25.88;51.38;99421.53;5094338;28;8829;-59
2023/06/20 08:51:01;;;;;;;;;9.40;8.60;;;;;26.03;51.58;99430.13;5093827;28;8841;-60
2023/06/20 08:53:29;;;;;;;;;7.80;7.20;;;;;26.21;51.18;99426.50;5093879;28;8877;-58
2023/06/20 08:55:58;;;;;;;;;11.40;11.40;;;;;26.39;50.65;99434.59;5093488;28;9616;-59
2023/06/20 08:58:26;;;;;;;;;12.00;11.40;;;;;26.54;50.68;99418.59;5093473;28;8863;-60
2023/06/20 09:00:55;;;;;;;;;11.60;10.00;;;;;26.65;50.30;99413.13;5092995;28;8852;-61
2023/06/20 09:03:23;;;;;;;;;12.00;11.40;;;;;26.82;50.25;99424.19;5094119;28;8849;-61
2023/06/20 09:05:51;;;;;;;;;12.40;11.00;;;;;26.99;50.14;99419.66;5093981;28;8885;-61
2023/06/20 09:08:19;;;;;;;;;10.40;8.40;;;;;27.15;49.82;99405.25;5094052;28;8865;-60
2023/06/20 09:10:47;;;;;;;;;10.80;9.40;;;;;27.28;49.55;99414.03;5093955;28;8845;-61
2023/06/20 09:13:16;;;;;;;;;7.80;7.20;;;;;27.45;49.64;99416.81;5093913;28;8871;-60
2023/06/20 09:15:45;;;;;;;;;6.80;6.00;;;;;27.56;49.21;99411.31;5094047;28;8930;-61
2023/06/20 09:18:14;;;;;;;;;10.80;10.00;;;;;27.69;49.89;99407.47;5094689;28;8943;-59
2023/06/20 09:20:43;;;;;;;;;11.40;10.40;;;;;27.83;49.10;99400.66;5093787;28;8840;-60
2023/06/20 09:23:11;;;;;;;;;12.00;10.60;;;;;27.94;49.33;99403.34;5093761;28;8849;-61
2023/06/20 09:25:40;;;;;;;;;12.00;10.00;;;;;28.03;48.62;99395.53;5093985;28;8869;-60
2023/06/20 09:28:08;;;;;;;;;12.20;10.00;;;;;28.17;48.66;99400.47;5093656;28;9633;-60
2023/06/20 09:30:36;;;;;;;;;11.80;11.80;;;;;28.31;48.49;99404.50;5093871;28;8930;-60
2023/06/20 09:33:04;;;;;;;;;8.80;8.20;;;;;28.45;48.32;99405.06;5093287;28;8925;-61
2023/06/20 09:35:32;;;;;;;;;8.60;8.40;;;;;28.64;47.75;99396.31;5093896;28;8869;-60
2023/06/20 09:38:01;;;;;;;;;13.20;11.20;;;;;28.97;46.96;99395.47;5093022;28;8845;-59
2023/06/20 09:40:29;;;;;;;;;7.80;7.40;;;;;29.27;46.83;99391.19;5094660;28;8865;-61
2023/06/20 09:42:57;;;;;;;;;9.40;9.20;;;;;29.45;47.02;99393.63;5093338;28;8845;-60
2023/06/20 09:45:26;;;;;;;;;9.80;9.20;;;;;29.43;46.75;99394.94;5093581;28;8833;-60
2023/06/20 09:47:54;;;;;;;;;8.80;8.20;;;;;29.33;47.40;99392.91;5092856;28;8971;-60
2023/06/20 09:50:23;;;;;;;;;11.20;10.80;;;;;29.33;47.45;99392.91;5093118;28;8833;-59
2023/06/20 09:52:51;;;;;;;;;8.20;8.20;;;;;29.22;47.19;99395.78;5092053;28;8856;-60
2023/06/20 09:55:19;;;;;;;;;8.40;8.40;;;;;29.19;47.32;99391.63;5092526;28;9733;-60
2023/06/20 09:57:47;;;;;;;;;9.40;8.00;;;;;29.45;47.27;99396.38;5093367;28;8849;-60
2023/06/20 10:00:15;;;;;;;;;5.20;4.60;;;;;29.84;46.38;99392.44;5093744;28;8848;-59
2023/06/20 10:02:45;;;;;;;;;8.40;8.40;;;;;30.28;45.58;99396.72;5092300;28;8960;-58
2023/06/20 10:05:14;;;;;;;;;10.20;10.00;;;;;30.65;45.29;99403.09;5093397;28;8876;-60
2023/06/20 10:07:42;;;;;;;;;10.00;9.80;;;;;30.58;45.28;99403.28;5093526;28;8867;-60
2023/06/20 10:10:10;;;;;;;;;9.40;9.40;;;;;30.37;45.81;99405.31;5093631;28;8826;-60
2023/06/20 10:12:38;;;;;;;;;10.40;10.00;;;;;30.17;46.25;99399.66;5094006;28;9560;-60
2023/06/20 10:15:07;;;;;;;;;11.00;10.80;;;;;30.05;46.26;99405.28;5094208;28;8849;-60
2023/06/20 10:17:35;;;;;;;;;8.60;8.60;;;;;29.93;46.50;99401.00;5094263;28;9620;-61
2023/06/20 10:20:07;;;;;;;;;9.60;9.00;;;;;29.88;46.84;99399.03;5093999;28;8853;-59
2023/06/20 10:22:35;;;;;;;;;9.00;9.00;;;;;30.24;46.22;99395.56;5091587;28;8864;-60
2023/06/20 10:25:11;;;;;;;;;8.80;6.80;;;;;30.85;45.50;99392.22;5090670;28;8972;-57
2023/06/20 10:27:39;;;;;;;;;6.60;6.00;;;;;31.56;43.93;99380.47;5090515;28;8849;-59
2023/06/20 10:30:07;;;;;;;;;7.40;6.40;;;;;31.77;43.96;99383.03;5091479;28;8852;-59
2023/06/20 10:32:35;;;;;;;;;9.80;8.20;;;;;31.66;44.33;99375.81;5096151;28;8861;-59
2023/06/20 10:35:04;;;;;;;;;8.00;7.40;;;;;32.03;43.60;99381.94;5096758;28;8873;-59
2023/06/20 10:37:32;;;;;;;;;10.20;9.20;;;;;32.67;42.53;99380.31;5095701;28;9506;-59
2023/06/20 10:40:01;;;;;;;;;9.80;9.20;;;;;33.18;41.70;99375.53;5098696;28;9571;-59
2023/06/20 10:42:29;;;;;;;;;8.00;7.60;;;;;33.66;40.39;99383.88;5097838;28;8853;-59
2023/06/20 10:44:57;;;;;;;;;9.00;8.00;;;;;33.35;41.44;99371.34;5095973;28;8975;-59
2023/06/20 10:47:27;;;;;;;;;8.00;8.00;;;;;33.11;41.87;99375.00;5097665;28;9531;-59
2023/06/20 10:49:55;;;;;;;;;5.40;5.40;;;;;32.91;42.54;99366.78;5096341;28;8841;-59
2023/06/20 10:52:24;;;;;;;;;8.40;8.20;;;;;32.75;42.38;99367.91;5094914;28;8841;-59
2023/06/20 10:54:53;;;;;;;;;9.00;9.00;;;;;32.31;43.11;99375.13;5094508;28;8868;-59
2023/06/20 10:57:21;;;;;;;;;8.60;7.60;;;;;32.42;42.77;99374.00;5095048;28;8990;-59
2023/06/20 10:59:49;;;;;;;;;9.00;9.00;;;;;33.00;41.83;99365.91;5095057;28;8861;-59
2023/06/20 11:02:17;;;;;;;;;8.60;8.40;;;;;33.52;41.57;99365.47;5095119;28;8875;-60
2023/06/20 11:04:46;;;;;;;;;9.00;8.20;;;;;33.88;40.01;99361.38;5094753;28;8954;-59
2023/06/20 11:07:14;;;;;;;;;5.00;4.80;;;;;34.13;39.54;99361.22;5095077;28;8841;-61
2023/06/20 11:09:45;;;;;;;;;6.20;5.60;;;;;34.54;39.29;99362.53;5095689;28;8857;-60
2023/06/20 11:12:13;;;;;;;;;9.60;8.20;;;;;34.89;38.60;99360.25;5095402;28;8950;-60
2023/06/20 11:14:41;;;;;;;;;7.00;7.00;;;;;35.29;38.45;99357.03;5095526;28;9559;-58
2023/06/20 11:17:09;;;;;;;;;9.00;8.00;;;;;35.87;37.53;99355.69;5095773;28;8967;-59
2023/06/20 11:19:37;;;;;;;;;9.80;8.20;;;;;36.23;36.39;99352.09;5095610;28;8848;-61
2023/06/20 11:22:05;;;;;;;;;9.60;8.20;;;;;36.68;36.65;99345.75;5095591;28;8991;-60
2023/06/20 11:24:35;;;;;;;;;9.20;9.00;;;;;37.10;35.73;99353.84;5095729;28;8984;-58
2023/06/20 11:27:04;;;;;;;;;9.00;8.00;;;;;37.19;35.97;99342.84;5095702;28;8837;-60
2023/06/20 11:29:32;;;;;;;;;6.00;5.40;;;;;37.28;35.66;99339.03;5095319;28;8959;-61
2023/06/20 11:32:00;;;;;;;;;6.40;5.80;;;;;37.59;35.57;99351.16;5096144;28;8869;-60
2023/06/20 11:34:28;;;;;;;;;8.00;7.40;;;;;37.91;35.18;99350.16;5096217;28;8865;-61
2023/06/20 11:36:57;;;;;;;;;6.00;6.00;;;;;37.99;34.79;99350.22;5096840;28;8837;-60